Sheridan, IN (46069)

2:36 AM EDT on September 30, 2016 (GMT -0400)
| | Change Station

Elev -9999 ft 0.00 °N, 0.00 °E | Updated

Rain
Rain
59 °F
Feels Like 59 °F
N
6
Wind Variable Wind from NNE
Gusts mph

Today
High -- | Low -- °F
--% Chance of Precip.
Yesterday
High -- | Low -- °F
Precip. -- in
Pressure 30.08 in
Visibility 10.0 miles
Clouds Mostly Cloudy 900 ft
Overcast 1200 ft
Dew Point 58 °F
Humidity 96%
Rainfall --
Snow Depth Not available.
7:40 AM 7:27 PM
Waning Crescent, 1% visible
METAR KTYQ 300615Z AUTO 04004KT 10SM BKN009 OVC012 15/14 A3008 RMK AO2 T01510142
Pressure 30.08 in
Visibility 10.0 miles
Clouds Mostly Cloudy 900 ft
Overcast 1200 ft
Dew Point 58 °F
Humidity 96%
Rainfall --
Snow Depth Not available.
7:40 AM 7:27 PM
Waning Crescent, 1% visible
METAR KTYQ 300615Z AUTO 04004KT 10SM BKN009 OVC012 15/14 A3008 RMK AO2 T01510142

10-Day Weather Forecast

Almanac

Astronomy

Sep. 30, 2016 Rise Set
Actual Time
Civil Twilight
Nautical Twilight
Astronomical Twilight
Moon
Length of Visible Light
Length of Day
Tomorrow will be .
, % of the Moon is Illuminated

Today's Extremes

State Highs State Lows

Community

WunderPhotos

Upload Photos

1,942,668 photos uploaded!

WunderBlog® & News

Nearby

Air Quality

  Air Quality AQ Index Pollutant
Not available.

Snow Depth

Station Depth Elevation

Earthquake Activity

City Distance Mag. Time & Date
Minimum magnitude displayed is 2.5.

Coastal Water Temperatures

Place Temperature

Stations

Nearby Weather Stations

Station Location Temp. Windchill Dew Point Humidity Wind Precip. Elev Updated Type
                   

Watches & Warnings

There are currently no watches in effect.